createdAt,value
2023-03-06T00:01:49.209Z,15.20
2023-03-06T00:04:15.905Z,18.67
2023-03-06T00:06:42.599Z,12.93
2023-03-06T00:09:10.562Z,18.48
2023-03-06T00:11:37.218Z,13.60
2023-03-06T00:14:03.847Z,16.38
2023-03-06T00:16:30.459Z,15.45
2023-03-06T00:18:57.141Z,16.80
2023-03-06T00:21:26.596Z,17.42
2023-03-06T00:23:53.160Z,14.07
2023-03-06T00:26:19.714Z,17.30
2023-03-06T00:28:46.260Z,14.40
2023-03-06T00:31:12.811Z,16.80
2023-03-06T00:33:39.319Z,14.80
2023-03-06T00:36:06.432Z,18.00
2023-03-06T00:38:35.530Z,12.70
2023-03-06T00:41:11.851Z,14.45
2023-03-06T00:43:38.420Z,16.23
2023-03-06T00:46:08.397Z,14.70
2023-03-06T00:48:35.063Z,18.95
2023-03-06T00:51:01.508Z,18.45
2023-03-06T00:53:28.009Z,14.52
2023-03-06T00:55:54.575Z,12.65
2023-03-06T00:58:21.106Z,18.17
2023-03-06T01:00:47.630Z,15.02
2023-03-06T01:03:14.217Z,14.73
2023-03-06T01:05:41.066Z,15.02
2023-03-06T01:08:08.828Z,18.20
2023-03-06T01:10:39.110Z,12.80
2023-03-06T01:13:05.982Z,18.45
2023-03-06T01:15:32.480Z,14.93
2023-03-06T01:20:25.958Z,16.02
2023-03-06T01:22:52.627Z,17.25
2023-03-06T01:25:19.261Z,17.00
2023-03-06T01:27:45.835Z,13.27
2023-03-06T01:30:12.685Z,18.00
2023-03-06T01:32:39.417Z,15.57
2023-03-06T01:35:06.399Z,13.98
2023-03-06T01:37:32.882Z,15.60
2023-03-06T01:42:32.132Z,15.80
2023-03-06T01:45:13.795Z,16.02
2023-03-06T01:47:40.418Z,14.25
2023-03-06T01:50:10.581Z,14.75
2023-03-06T01:52:43.776Z,15.20
2023-03-06T01:55:15.830Z,16.27
2023-03-06T01:57:45.391Z,16.30
2023-03-06T02:00:16.515Z,15.18
2023-03-06T02:02:47.573Z,13.35
2023-03-06T02:05:14.218Z,17.40
2023-03-06T02:07:42.421Z,17.92
2023-03-06T02:10:10.419Z,17.65
2023-03-06T02:12:39.240Z,16.60
2023-03-06T02:15:06.478Z,15.95
2023-03-06T02:17:35.354Z,15.65
2023-03-06T02:20:33.865Z,17.00
2023-03-06T02:23:06.229Z,17.45
2023-03-06T02:25:45.012Z,16.63
2023-03-06T02:28:14.738Z,17.05
2023-03-06T02:30:42.782Z,15.98
2023-03-06T02:33:13.427Z,15.45
2023-03-06T02:35:43.617Z,15.77
2023-03-06T02:38:13.532Z,18.55
2023-03-06T02:40:43.248Z,16.48
2023-03-06T02:43:11.934Z,17.83
2023-03-06T02:45:47.066Z,18.73
2023-03-06T02:48:14.873Z,16.58
2023-03-06T02:50:42.910Z,17.02
2023-03-06T02:53:11.207Z,14.77
2023-03-06T02:55:37.754Z,16.85
2023-03-06T02:58:04.675Z,19.95
2023-03-06T03:00:32.190Z,16.27
2023-03-06T03:05:25.225Z,18.55
2023-03-06T03:07:51.631Z,20.42
2023-03-06T03:10:18.210Z,16.27
2023-03-06T03:12:44.658Z,17.42
2023-03-06T03:15:11.406Z,16.42
2023-03-06T03:17:40.229Z,18.08
2023-03-06T03:20:09.894Z,17.60
2023-03-06T03:22:36.651Z,15.75
2023-03-06T03:25:04.185Z,18.98
2023-03-06T03:27:30.619Z,19.95
2023-03-06T03:29:58.381Z,17.25
2023-03-06T03:32:25.201Z,19.70
2023-03-06T03:34:51.692Z,19.77
2023-03-06T03:37:18.639Z,18.38
2023-03-06T03:39:45.054Z,18.35
2023-03-06T03:42:11.581Z,19.90
2023-03-06T03:44:38.176Z,18.13
2023-03-06T03:47:05.205Z,18.42
2023-03-06T03:49:31.786Z,21.73
2023-03-06T03:51:58.538Z,20.52
2023-03-06T03:54:24.989Z,19.08
2023-03-06T03:56:51.580Z,17.95
2023-03-06T03:59:18.002Z,18.63
2023-03-06T04:01:45.842Z,17.70
2023-03-06T04:04:12.411Z,22.23
2023-03-06T04:06:39.057Z,20.30
2023-03-06T04:09:06.146Z,21.25
2023-03-06T04:11:33.328Z,21.63
2023-03-06T04:13:59.866Z,18.08
2023-03-06T04:16:26.846Z,19.65
2023-03-06T04:18:53.311Z,19.30
2023-03-06T04:21:19.824Z,21.58
2023-03-06T04:23:46.241Z,17.92
2023-03-06T04:26:12.701Z,19.30
2023-03-06T04:28:39.113Z,21.83
2023-03-06T04:31:05.657Z,25.45
2023-03-06T04:33:32.230Z,20.08
2023-03-06T04:35:58.667Z,20.73
2023-03-06T04:38:25.113Z,21.10
2023-03-06T04:40:51.510Z,21.35
2023-03-06T04:43:18.142Z,19.73
2023-03-06T04:45:44.712Z,21.35
2023-03-06T04:48:16.743Z,24.63
2023-03-06T04:50:43.217Z,22.10
2023-03-06T04:53:10.946Z,22.08
2023-03-06T04:55:37.610Z,23.17
2023-03-06T04:58:04.154Z,27.98
2023-03-06T05:00:31.718Z,21.23
2023-03-06T05:03:00.393Z,23.27
2023-03-06T05:05:27.507Z,22.27
2023-03-06T05:07:54.059Z,22.83
2023-03-06T05:10:21.197Z,23.30
2023-03-06T05:12:47.713Z,23.95
2023-03-06T05:15:14.511Z,21.05
2023-03-06T05:17:40.975Z,26.02
2023-03-06T05:20:10.857Z,24.08
2023-03-06T05:22:37.460Z,23.27
2023-03-06T05:25:04.923Z,24.95
2023-03-06T05:27:32.083Z,24.17
2023-03-06T05:32:27.341Z,26.85
2023-03-06T05:34:54.265Z,24.27
2023-03-06T05:37:21.010Z,25.02
2023-03-06T05:39:47.685Z,22.73
2023-03-06T05:42:14.229Z,30.63
2023-03-06T05:44:41.776Z,24.65
2023-03-06T05:49:36.718Z,26.75
2023-03-06T05:52:05.424Z,25.15
2023-03-06T05:54:33.851Z,28.80
2023-03-06T05:59:32.900Z,26.98
2023-03-06T06:10:19.170Z,26.15
2023-03-06T06:12:48.715Z,26.08
2023-03-06T06:20:31.854Z,25.35
2023-03-06T06:25:26.600Z,23.35
2023-03-06T06:28:00.840Z,29.52
2023-03-06T06:30:27.865Z,28.67
2023-03-06T06:32:56.821Z,31.30
2023-03-06T06:35:25.211Z,23.70
2023-03-06T06:37:55.252Z,23.98
2023-03-06T06:40:25.900Z,26.88
2023-03-06T06:42:52.981Z,29.10
2023-03-06T06:45:23.544Z,28.15
2023-03-06T06:47:57.489Z,28.30
2023-03-06T06:50:27.496Z,27.80
2023-03-06T06:53:00.648Z,26.95
2023-03-06T06:55:27.937Z,29.15
2023-03-06T06:57:55.073Z,27.77
2023-03-06T07:00:22.632Z,27.77
2023-03-06T07:02:51.226Z,26.92
2023-03-06T07:05:24.840Z,27.92
2023-03-06T07:07:58.463Z,29.20
2023-03-06T07:10:26.223Z,33.28
2023-03-06T07:12:59.614Z,30.85
2023-03-06T07:15:39.788Z,28.92
2023-03-06T07:18:09.842Z,27.80
2023-03-06T07:20:55.819Z,28.60
2023-03-06T07:23:23.540Z,32.72
2023-03-06T07:25:50.706Z,27.70
2023-03-06T07:28:21.853Z,31.45
2023-03-06T07:30:53.585Z,28.77
2023-03-06T07:33:20.671Z,30.63
2023-03-06T07:35:48.039Z,40.83
2023-03-06T07:38:15.585Z,30.05
2023-03-06T07:40:43.195Z,29.55
2023-03-06T07:43:19.661Z,28.52
2023-03-06T07:45:47.379Z,29.80
2023-03-06T07:48:15.038Z,29.15
2023-03-06T07:50:51.186Z,30.13
2023-03-06T07:53:22.061Z,30.02
2023-03-06T07:55:49.528Z,31.67
2023-03-06T07:58:16.495Z,25.95
2023-03-06T08:00:45.622Z,26.85
2023-03-06T08:03:16.205Z,33.10
2023-03-06T08:05:45.330Z,28.90
2023-03-06T08:08:13.193Z,28.25
2023-03-06T08:10:49.229Z,27.77
2023-03-06T08:13:26.860Z,27.98
2023-03-06T08:15:57.209Z,30.35
2023-03-06T08:18:36.970Z,26.38
2023-03-06T08:21:21.151Z,27.77
2023-03-06T08:23:48.929Z,27.67
2023-03-06T08:26:31.615Z,28.25
2023-03-06T08:31:52.060Z,27.30
2023-03-06T08:34:33.028Z,24.10
2023-03-06T08:37:04.410Z,24.30
2023-03-06T08:39:33.232Z,24.92
2023-03-06T08:42:27.196Z,24.50
2023-03-06T08:45:00.296Z,21.17
2023-03-06T08:47:28.876Z,19.63
2023-03-06T08:49:56.121Z,19.95
2023-03-06T08:52:23.073Z,17.55
2023-03-06T08:54:50.174Z,21.25
2023-03-06T08:57:18.181Z,20.90
2023-03-06T08:59:48.181Z,17.88
2023-03-06T09:04:47.227Z,17.85
2023-03-06T09:07:17.908Z,21.00
2023-03-06T09:09:47.901Z,18.15
2023-03-06T09:12:18.396Z,22.88
2023-03-06T09:14:48.595Z,20.85
2023-03-06T09:17:30.097Z,18.80
2023-03-06T09:20:10.195Z,18.30
2023-03-06T09:25:38.003Z,17.02
2023-03-06T09:30:51.473Z,18.50
2023-03-06T09:33:29.752Z,18.23
2023-03-06T09:35:59.561Z,18.70
2023-03-06T09:42:37.072Z,17.83
2023-03-06T09:48:15.621Z,19.75
2023-03-06T09:51:33.979Z,19.75
2023-03-06T09:54:28.057Z,18.42
2023-03-06T09:56:58.683Z,22.20
2023-03-06T09:59:39.293Z,17.48
2023-03-06T10:02:24.561Z,18.92
2023-03-06T10:05:01.210Z,19.98
2023-03-06T10:08:23.050Z,18.70
2023-03-06T10:11:14.335Z,19.98
2023-03-06T10:13:51.336Z,19.42
2023-03-06T10:16:28.570Z,21.33
2023-03-06T10:19:16.864Z,20.23
2023-03-06T10:22:00.397Z,21.77
2023-03-06T10:24:49.911Z,17.13
2023-03-06T10:27:50.113Z,17.45
2023-03-06T10:30:46.643Z,19.85
2023-03-06T10:33:16.524Z,16.90
2023-03-06T10:35:55.322Z,15.75
2023-03-06T10:38:38.706Z,17.98
2023-03-06T10:41:25.498Z,17.23
2023-03-06T10:44:08.388Z,18.25
2023-03-06T10:46:47.748Z,18.95
2023-03-06T10:52:06.222Z,15.45
2023-03-06T10:54:58.353Z,15.45
2023-03-06T10:57:33.089Z,14.70
2023-03-06T11:07:18.934Z,15.75
2023-03-06T11:15:31.020Z,16.08
2023-03-06T11:18:05.737Z,13.88
2023-03-06T11:20:51.934Z,16.33
2023-03-06T11:24:02.949Z,18.20
2023-03-06T11:27:06.472Z,14.30
2023-03-06T11:29:50.930Z,14.60
2023-03-06T11:32:27.535Z,15.05
2023-03-06T11:37:58.742Z,13.85
2023-03-06T11:40:45.344Z,15.43
2023-03-06T11:43:46.490Z,14.02
2023-03-06T11:46:34.496Z,17.02
2023-03-06T11:49:28.416Z,14.13
2023-03-06T11:52:00.260Z,14.93
2023-03-06T11:54:30.389Z,14.80
2023-03-06T12:00:26.069Z,15.73
2023-03-06T12:03:33.664Z,15.48
2023-03-06T12:06:39.171Z,12.95
2023-03-06T12:09:17.277Z,12.38
2023-03-06T12:11:58.197Z,15.13
2023-03-06T12:15:16.239Z,13.90
2023-03-06T12:18:18.677Z,14.18
2023-03-06T12:24:34.109Z,15.95
2023-03-06T12:27:19.465Z,15.23
2023-03-06T12:30:06.617Z,14.63
2023-03-06T12:33:16.212Z,15.65
2023-03-06T12:41:44.043Z,14.30
2023-03-06T12:44:27.730Z,15.45
2023-03-06T12:47:08.946Z,16.30
2023-03-06T12:49:47.561Z,15.80
2023-03-06T12:52:32.327Z,15.25
2023-03-06T12:57:54.985Z,15.85
2023-03-06T13:00:39.761Z,14.05
2023-03-06T13:03:32.011Z,16.85
2023-03-06T13:06:07.502Z,13.40
2023-03-06T13:09:05.985Z,17.02
2023-03-06T13:12:11.413Z,16.90
2023-03-06T13:14:54.181Z,13.85
2023-03-06T13:17:29.660Z,15.73
2023-03-06T13:20:23.671Z,18.58
2023-03-06T13:23:04.959Z,15.35
2023-03-06T13:25:54.348Z,12.80
2023-03-06T13:28:59.054Z,15.55
2023-03-06T13:31:57.701Z,15.70
2023-03-06T13:34:41.140Z,14.07
2023-03-06T13:42:45.890Z,14.00
2023-03-06T13:45:20.309Z,12.23
2023-03-06T13:54:14.076Z,11.43
2023-03-06T13:57:20.072Z,12.57
2023-03-06T14:00:13.319Z,12.20
2023-03-06T14:03:07.332Z,15.88
2023-03-06T14:05:49.992Z,15.00
2023-03-06T14:08:30.295Z,13.75
2023-03-06T14:11:29.378Z,16.27
2023-03-06T14:14:00.483Z,13.77
2023-03-06T14:16:49.527Z,14.00
2023-03-06T14:19:24.001Z,12.40
2023-03-06T14:22:01.380Z,14.02
2023-03-06T14:25:00.270Z,11.95
2023-03-06T14:27:51.121Z,13.80
2023-03-06T14:33:12.348Z,13.02
2023-03-06T14:38:10.975Z,15.23
2023-03-06T14:40:48.853Z,12.88
2023-03-06T14:43:27.373Z,14.23
2023-03-06T14:46:13.583Z,13.98
2023-03-06T14:51:23.236Z,14.00
2023-03-06T14:59:37.886Z,14.55
2023-03-06T15:02:10.783Z,13.55
2023-03-06T15:04:42.719Z,15.75
2023-03-06T15:10:37.203Z,13.82
2023-03-06T15:13:30.166Z,13.43
2023-03-06T15:16:01.967Z,13.85
2023-03-06T15:18:43.986Z,19.02
2023-03-06T15:21:30.128Z,15.85
2023-03-06T15:23:59.498Z,15.35
2023-03-06T15:26:38.006Z,17.13
2023-03-06T15:29:11.237Z,17.25
2023-03-06T15:31:55.052Z,15.05
2023-03-06T15:34:36.096Z,16.63
2023-03-06T15:37:32.965Z,16.67
2023-03-06T15:40:20.430Z,15.45
2023-03-06T15:42:55.398Z,16.02
2023-03-06T15:45:25.564Z,15.18
2023-03-06T15:51:18.742Z,14.68
2023-03-06T15:53:44.653Z,17.33
2023-03-06T15:56:19.676Z,17.48
2023-03-06T16:02:45.937Z,18.13
2023-03-06T16:05:28.631Z,20.17
2023-03-06T16:08:20.375Z,17.88
2023-03-06T16:10:50.185Z,18.77
2023-03-06T16:13:40.927Z,18.85
2023-03-06T16:16:39.192Z,18.65
2023-03-06T16:19:29.001Z,19.90
2023-03-06T16:22:27.188Z,20.77
2023-03-06T16:25:25.079Z,29.27
2023-03-06T16:28:11.868Z,18.88
2023-03-06T16:30:58.162Z,21.73
2023-03-06T16:39:30.194Z,19.52
2023-03-06T16:45:25.662Z,19.98
2023-03-06T16:48:18.278Z,18.20
2023-03-06T16:51:31.193Z,19.23
2023-03-06T16:53:58.012Z,19.85
2023-03-06T16:56:24.547Z,22.15
2023-03-06T16:58:53.544Z,18.95
2023-03-06T17:01:20.444Z,26.13
2023-03-06T17:03:47.066Z,22.48
2023-03-06T17:06:20.351Z,21.10
2023-03-06T17:08:48.111Z,20.77
2023-03-06T17:11:15.341Z,20.05
2023-03-06T17:13:42.341Z,24.25
2023-03-06T17:16:16.229Z,21.58
2023-03-06T17:18:45.092Z,19.33
2023-03-06T17:21:15.749Z,23.48
2023-03-06T17:23:42.823Z,18.15
2023-03-06T17:26:16.042Z,19.55
2023-03-06T17:28:43.151Z,22.60
2023-03-06T17:31:24.452Z,21.38
2023-03-06T17:33:51.957Z,22.13
2023-03-06T17:36:19.412Z,23.23
2023-03-06T17:38:48.460Z,21.67
2023-03-06T17:41:15.278Z,21.55
2023-03-06T17:43:42.310Z,29.23
2023-03-06T17:46:11.555Z,26.35
2023-03-06T17:48:39.311Z,21.90
2023-03-06T17:51:06.416Z,23.42
2023-03-06T17:53:33.665Z,23.23
2023-03-06T17:56:02.505Z,27.95
2023-03-06T17:58:29.044Z,25.63
2023-03-06T18:00:55.536Z,26.13
2023-03-06T18:03:22.295Z,28.35
2023-03-06T18:05:59.571Z,26.13
2023-03-06T18:11:08.104Z,24.58
2023-03-06T18:16:06.932Z,23.67
2023-03-06T18:18:33.834Z,21.35
2023-03-06T18:21:12.252Z,22.10
2023-03-06T18:23:44.872Z,21.73
2023-03-06T18:26:17.159Z,21.80
2023-03-06T18:28:46.638Z,23.85
2023-03-06T18:31:20.937Z,21.98
2023-03-06T18:33:49.345Z,20.75
2023-03-06T18:36:19.141Z,22.83
2023-03-06T18:38:50.127Z,19.52
2023-03-06T18:41:19.015Z,22.98
2023-03-06T18:43:45.865Z,22.25
2023-03-06T18:46:12.716Z,21.50
2023-03-06T18:51:12.028Z,21.42
2023-03-06T18:53:42.118Z,21.05
2023-03-06T18:56:10.648Z,18.25
2023-03-06T18:58:37.538Z,20.48
2023-03-06T19:01:07.488Z,19.08
2023-03-06T19:03:34.415Z,29.35
2023-03-06T19:06:06.017Z,50.47
2023-03-06T19:08:33.433Z,36.13
2023-03-06T19:11:07.003Z,39.70
2023-03-06T19:13:33.980Z,19.45
2023-03-06T19:16:01.339Z,18.38
2023-03-06T19:18:29.391Z,19.60
2023-03-06T19:21:07.627Z,18.65
2023-03-06T19:23:34.287Z,18.17
2023-03-06T19:26:00.811Z,20.23
2023-03-06T19:28:27.621Z,19.33
2023-03-06T19:30:54.266Z,19.85
2023-03-06T19:33:21.096Z,18.95
2023-03-06T19:35:47.977Z,20.05
2023-03-06T19:38:15.610Z,19.08
2023-03-06T19:40:49.503Z,21.98
2023-03-06T19:43:16.344Z,21.73
2023-03-06T19:45:44.165Z,19.05
2023-03-06T19:48:12.586Z,19.58
2023-03-06T19:50:42.877Z,22.40
2023-03-06T19:53:13.368Z,21.13
2023-03-06T19:55:40.471Z,22.60
2023-03-06T19:58:08.670Z,21.95
2023-03-06T20:00:36.218Z,20.95
2023-03-06T20:03:02.968Z,19.63
2023-03-06T20:05:35.025Z,21.98
2023-03-06T20:10:45.429Z,23.73
2023-03-06T20:13:12.258Z,22.63
2023-03-06T20:18:07.800Z,23.63
2023-03-06T20:20:35.635Z,26.23
2023-03-06T20:23:04.654Z,23.02
2023-03-06T20:25:31.680Z,25.50
2023-03-06T20:28:01.999Z,22.40
2023-03-06T20:30:37.436Z,26.55
2023-03-06T20:33:06.332Z,24.15
2023-03-06T20:35:32.830Z,26.15
2023-03-06T20:37:59.910Z,25.20
2023-03-06T20:40:26.821Z,29.40
2023-03-06T20:42:54.025Z,25.02
2023-03-06T20:45:20.623Z,27.73
2023-03-06T20:47:47.514Z,27.15
2023-03-06T20:50:15.330Z,30.45
2023-03-06T20:52:42.157Z,23.95
2023-03-06T20:55:09.412Z,39.40
2023-03-06T20:57:36.079Z,26.08
2023-03-06T21:00:03.940Z,27.67
2023-03-06T21:02:30.889Z,28.33
2023-03-06T21:05:00.429Z,27.35
2023-03-06T21:07:27.328Z,24.65
2023-03-06T21:09:56.952Z,25.45
2023-03-06T21:12:23.685Z,22.95
2023-03-06T21:14:50.367Z,24.50
2023-03-06T21:17:17.048Z,24.20
2023-03-06T21:19:43.959Z,25.17
2023-03-06T21:22:10.667Z,25.58
2023-03-06T21:24:37.380Z,28.48
2023-03-06T21:27:04.002Z,62.80
2023-03-06T21:29:30.806Z,27.63
2023-03-06T21:31:57.457Z,26.45
2023-03-06T21:34:24.053Z,23.77
2023-03-06T21:36:51.322Z,22.33
2023-03-06T21:39:18.041Z,22.52
2023-03-06T21:41:44.603Z,21.80
2023-03-06T21:44:11.338Z,21.02
2023-03-06T21:46:40.470Z,20.75
2023-03-06T21:49:07.265Z,21.30
2023-03-06T21:51:34.445Z,19.73
2023-03-06T21:54:02.154Z,18.48
2023-03-06T21:56:29.016Z,19.58
2023-03-06T21:58:56.708Z,18.77
2023-03-06T22:01:27.058Z,17.20
2023-03-06T22:03:53.941Z,17.75
2023-03-06T22:06:23.983Z,17.88
2023-03-06T22:08:50.983Z,18.23
2023-03-06T22:11:22.341Z,18.67
2023-03-06T22:13:49.474Z,17.77
2023-03-06T22:16:17.502Z,19.35
2023-03-06T22:18:45.967Z,17.40
2023-03-06T22:21:14.689Z,18.58
2023-03-06T22:23:41.833Z,16.90
2023-03-06T22:26:12.599Z,24.67
2023-03-06T22:28:40.485Z,16.42
2023-03-06T22:31:12.615Z,17.75
2023-03-06T22:36:11.964Z,16.02
2023-03-06T22:38:40.886Z,16.80
2023-03-06T22:41:09.259Z,19.15
2023-03-06T22:43:36.412Z,16.52
2023-03-06T22:46:05.046Z,16.20
2023-03-06T22:48:32.063Z,16.75
2023-03-06T22:51:05.815Z,15.88
2023-03-06T22:53:33.447Z,17.13
2023-03-06T22:56:01.581Z,18.42
2023-03-06T22:58:34.146Z,17.20
2023-03-06T23:01:18.813Z,18.00
2023-03-06T23:03:51.058Z,16.67
2023-03-06T23:06:35.278Z,15.70
2023-03-06T23:09:06.736Z,17.38
2023-03-06T23:11:33.775Z,16.10
2023-03-06T23:14:00.921Z,15.93
2023-03-06T23:16:27.439Z,16.20
2023-03-06T23:18:54.300Z,18.88
2023-03-06T23:21:22.612Z,17.00
2023-03-06T23:23:51.057Z,19.65
2023-03-06T23:26:19.242Z,17.98
2023-03-06T23:28:46.110Z,19.27
2023-03-06T23:31:15.344Z,16.90
2023-03-06T23:33:42.673Z,17.83
2023-03-06T23:36:11.555Z,17.95
2023-03-06T23:38:38.780Z,16.20
2023-03-06T23:41:07.118Z,18.05
2023-03-06T23:43:34.000Z,20.33
2023-03-06T23:46:00.661Z,19.80
2023-03-06T23:48:27.654Z,18.05
2023-03-06T23:50:54.884Z,19.60
2023-03-06T23:53:22.251Z,19.42
2023-03-06T23:55:50.331Z,19.88
2023-03-06T23:58:18.543Z,19.20
